sensor_id;sensor_type;location;lat;lon;timestamp;P1;durP1;ratioP1;P2;durP2;ratioP2
10450;SDS011;5273;51.290;6.918;2022-10-31T00:02:02;6.88;;;3.83;;
10450;SDS011;5273;51.290;6.918;2022-10-31T00:04:29;8.55;;;3.92;;
10450;SDS011;5273;51.290;6.918;2022-10-31T00:06:56;7.75;;;4.28;;
10450;SDS011;5273;51.290;6.918;2022-10-31T00:09:23;6.53;;;4.05;;
10450;SDS011;5273;51.290;6.918;2022-10-31T00:11:50;10.30;;;4.03;;
10450;SDS011;5273;51.290;6.918;2022-10-31T00:14:17;6.68;;;4.15;;
10450;SDS011;5273;51.290;6.918;2022-10-31T00:16:45;5.13;;;3.72;;
10450;SDS011;5273;51.290;6.918;2022-10-31T00:19:12;5.85;;;3.90;;
10450;SDS011;5273;51.290;6.918;2022-10-31T00:21:39;8.18;;;4.45;;
10450;SDS011;5273;51.290;6.918;2022-10-31T00:24:06;5.72;;;4.13;;
10450;SDS011;5273;51.290;6.918;2022-10-31T00:26:33;5.65;;;3.63;;
10450;SDS011;5273;51.290;6.918;2022-10-31T00:29:00;5.38;;;3.35;;
10450;SDS011;5273;51.290;6.918;2022-10-31T00:31:27;8.45;;;3.70;;
10450;SDS011;5273;51.290;6.918;2022-10-31T00:33:55;7.65;;;4.53;;
10450;SDS011;5273;51.290;6.918;2022-10-31T00:36:23;7.75;;;4.00;;
10450;SDS011;5273;51.290;6.918;2022-10-31T00:38:49;8.93;;;4.22;;
10450;SDS011;5273;51.290;6.918;2022-10-31T00:41:16;9.65;;;4.22;;
10450;SDS011;5273;51.290;6.918;2022-10-31T00:43:43;7.05;;;4.03;;
10450;SDS011;5273;51.290;6.918;2022-10-31T00:46:11;9.10;;;4.43;;
10450;SDS011;5273;51.290;6.918;2022-10-31T00:48:38;5.53;;;4.32;;
10450;SDS011;5273;51.290;6.918;2022-10-31T00:51:07;5.85;;;4.15;;
10450;SDS011;5273;51.290;6.918;2022-10-31T00:53:34;7.00;;;4.10;;
10450;SDS011;5273;51.290;6.918;2022-10-31T00:56:01;6.82;;;3.90;;
10450;SDS011;5273;51.290;6.918;2022-10-31T00:58:28;8.15;;;4.13;;
10450;SDS011;5273;51.290;6.918;2022-10-31T01:00:55;9.02;;;4.38;;
10450;SDS011;5273;51.290;6.918;2022-10-31T01:03:22;6.10;;;4.65;;
10450;SDS011;5273;51.290;6.918;2022-10-31T01:06:00;10.88;;;4.75;;
10450;SDS011;5273;51.290;6.918;2022-10-31T01:08:30;12.52;;;4.70;;
10450;SDS011;5273;51.290;6.918;2022-10-31T01:10:58;8.40;;;3.95;;
10450;SDS011;5273;51.290;6.918;2022-10-31T01:13:28;5.28;;;4.00;;
10450;SDS011;5273;51.290;6.918;2022-10-31T01:15:56;6.40;;;3.80;;
10450;SDS011;5273;51.290;6.918;2022-10-31T01:18:23;7.53;;;3.85;;
10450;SDS011;5273;51.290;6.918;2022-10-31T01:20:57;6.03;;;4.07;;
10450;SDS011;5273;51.290;6.918;2022-10-31T01:23:25;7.07;;;4.20;;
10450;SDS011;5273;51.290;6.918;2022-10-31T01:26:00;10.20;;;4.65;;
10450;SDS011;5273;51.290;6.918;2022-10-31T01:28:27;8.88;;;4.35;;
10450;SDS011;5273;51.290;6.918;2022-10-31T01:30:54;7.20;;;4.13;;
10450;SDS011;5273;51.290;6.918;2022-10-31T01:33:21;8.50;;;4.45;;
10450;SDS011;5273;51.290;6.918;2022-10-31T01:35:47;7.85;;;4.35;;
10450;SDS011;5273;51.290;6.918;2022-10-31T01:38:14;9.93;;;4.60;;
10450;SDS011;5273;51.290;6.918;2022-10-31T01:40:41;8.20;;;4.43;;
10450;SDS011;5273;51.290;6.918;2022-10-31T01:43:10;6.53;;;4.50;;
10450;SDS011;5273;51.290;6.918;2022-10-31T01:45:39;10.57;;;5.43;;
10450;SDS011;5273;51.290;6.918;2022-10-31T01:48:07;10.52;;;5.15;;
10450;SDS011;5273;51.290;6.918;2022-10-31T01:50:39;9.50;;;4.72;;
10450;SDS011;5273;51.290;6.918;2022-10-31T01:53:09;7.55;;;3.97;;
10450;SDS011;5273;51.290;6.918;2022-10-31T01:55:38;8.73;;;4.50;;
10450;SDS011;5273;51.290;6.918;2022-10-31T01:58:08;6.32;;;4.30;;
10450;SDS011;5273;51.290;6.918;2022-10-31T02:00:39;8.75;;;4.70;;
10450;SDS011;5273;51.290;6.918;2022-10-31T02:03:07;9.52;;;4.65;;
10450;SDS011;5273;51.290;6.918;2022-10-31T02:05:33;7.50;;;4.10;;
10450;SDS011;5273;51.290;6.918;2022-10-31T02:08:03;8.50;;;5.00;;
10450;SDS011;5273;51.290;6.918;2022-10-31T02:10:33;8.13;;;5.30;;
10450;SDS011;5273;51.290;6.918;2022-10-31T02:13:04;6.53;;;4.43;;
10450;SDS011;5273;51.290;6.918;2022-10-31T02:15:33;9.38;;;5.00;;
10450;SDS011;5273;51.290;6.918;2022-10-31T02:18:02;7.53;;;4.70;;
10450;SDS011;5273;51.290;6.918;2022-10-31T02:20:32;7.65;;;4.97;;
10450;SDS011;5273;51.290;6.918;2022-10-31T02:23:12;8.80;;;4.35;;
10450;SDS011;5273;51.290;6.918;2022-10-31T02:25:58;8.30;;;4.25;;
10450;SDS011;5273;51.290;6.918;2022-10-31T02:28:45;7.25;;;4.30;;
10450;SDS011;5273;51.290;6.918;2022-10-31T02:31:28;8.52;;;4.70;;
10450;SDS011;5273;51.290;6.918;2022-10-31T02:34:01;8.00;;;4.78;;
10450;SDS011;5273;51.290;6.918;2022-10-31T02:36:35;9.90;;;5.40;;
10450;SDS011;5273;51.290;6.918;2022-10-31T02:39:10;13.75;;;5.50;;
10450;SDS011;5273;51.290;6.918;2022-10-31T02:41:45;10.73;;;5.50;;
10450;SDS011;5273;51.290;6.918;2022-10-31T02:44:16;11.10;;;5.40;;
10450;SDS011;5273;51.290;6.918;2022-10-31T02:46:50;10.88;;;5.13;;
10450;SDS011;5273;51.290;6.918;2022-10-31T02:49:24;8.32;;;5.15;;
10450;SDS011;5273;51.290;6.918;2022-10-31T02:51:54;7.68;;;3.95;;
10450;SDS011;5273;51.290;6.918;2022-10-31T02:54:22;7.90;;;3.90;;
10450;SDS011;5273;51.290;6.918;2022-10-31T02:56:50;7.45;;;4.10;;
10450;SDS011;5273;51.290;6.918;2022-10-31T02:59:21;6.55;;;4.13;;
10450;SDS011;5273;51.290;6.918;2022-10-31T03:04:47;9.02;;;4.88;;
10450;SDS011;5273;51.290;6.918;2022-10-31T03:07:24;8.68;;;4.95;;
10450;SDS011;5273;51.290;6.918;2022-10-31T03:09:58;8.88;;;4.15;;
10450;SDS011;5273;51.290;6.918;2022-10-31T03:12:32;7.20;;;5.15;;
10450;SDS011;5273;51.290;6.918;2022-10-31T03:15:06;8.85;;;4.95;;
10450;SDS011;5273;51.290;6.918;2022-10-31T03:17:42;7.28;;;4.60;;
10450;SDS011;5273;51.290;6.918;2022-10-31T03:20:16;9.95;;;5.13;;
10450;SDS011;5273;51.290;6.918;2022-10-31T03:22:47;8.70;;;4.30;;
10450;SDS011;5273;51.290;6.918;2022-10-31T03:25:14;7.90;;;4.40;;
10450;SDS011;5273;51.290;6.918;2022-10-31T03:27:42;7.72;;;4.63;;
10450;SDS011;5273;51.290;6.918;2022-10-31T03:30:10;11.50;;;5.63;;
10450;SDS011;5273;51.290;6.918;2022-10-31T03:32:39;10.48;;;5.35;;
10450;SDS011;5273;51.290;6.918;2022-10-31T03:35:10;10.93;;;4.78;;
10450;SDS011;5273;51.290;6.918;2022-10-31T03:37:40;7.68;;;5.35;;
10450;SDS011;5273;51.290;6.918;2022-10-31T03:40:08;7.10;;;5.00;;
10450;SDS011;5273;51.290;6.918;2022-10-31T03:42:39;7.40;;;4.70;;
10450;SDS011;5273;51.290;6.918;2022-10-31T03:45:10;8.85;;;4.68;;
10450;SDS011;5273;51.290;6.918;2022-10-31T03:47:40;10.15;;;5.25;;
10450;SDS011;5273;51.290;6.918;2022-10-31T03:50:09;11.00;;;4.93;;
10450;SDS011;5273;51.290;6.918;2022-10-31T03:52:41;11.40;;;5.43;;
10450;SDS011;5273;51.290;6.918;2022-10-31T03:55:13;9.32;;;4.97;;
10450;SDS011;5273;51.290;6.918;2022-10-31T03:57:44;7.63;;;5.05;;
10450;SDS011;5273;51.290;6.918;2022-10-31T04:00:17;12.60;;;5.40;;
10450;SDS011;5273;51.290;6.918;2022-10-31T04:02:47;8.48;;;5.05;;
10450;SDS011;5273;51.290;6.918;2022-10-31T04:05:17;8.32;;;4.65;;
10450;SDS011;5273;51.290;6.918;2022-10-31T04:07:47;9.65;;;5.40;;
10450;SDS011;5273;51.290;6.918;2022-10-31T04:10:17;13.15;;;5.43;;
10450;SDS011;5273;51.290;6.918;2022-10-31T04:12:48;9.95;;;5.60;;
10450;SDS011;5273;51.290;6.918;2022-10-31T04:15:19;7.78;;;5.38;;
10450;SDS011;5273;51.290;6.918;2022-10-31T04:17:48;11.40;;;5.03;;
10450;SDS011;5273;51.290;6.918;2022-10-31T04:20:28;8.65;;;5.32;;
10450;SDS011;5273;51.290;6.918;2022-10-31T04:22:55;10.32;;;5.40;;
10450;SDS011;5273;51.290;6.918;2022-10-31T04:25:22;11.40;;;5.78;;
10450;SDS011;5273;51.290;6.918;2022-10-31T04:27:49;9.43;;;5.45;;
10450;SDS011;5273;51.290;6.918;2022-10-31T04:30:16;11.27;;;5.68;;
10450;SDS011;5273;51.290;6.918;2022-10-31T04:32:42;9.52;;;5.28;;
10450;SDS011;5273;51.290;6.918;2022-10-31T04:35:11;13.75;;;5.78;;
10450;SDS011;5273;51.290;6.918;2022-10-31T04:37:37;9.85;;;5.63;;
10450;SDS011;5273;51.290;6.918;2022-10-31T04:40:04;10.30;;;5.97;;
10450;SDS011;5273;51.290;6.918;2022-10-31T04:42:32;10.30;;;6.13;;
10450;SDS011;5273;51.290;6.918;2022-10-31T04:44:58;12.32;;;5.55;;
10450;SDS011;5273;51.290;6.918;2022-10-31T04:47:25;10.68;;;6.32;;
10450;SDS011;5273;51.290;6.918;2022-10-31T04:49:52;9.60;;;5.67;;
10450;SDS011;5273;51.290;6.918;2022-10-31T04:52:20;8.65;;;6.07;;
10450;SDS011;5273;51.290;6.918;2022-10-31T04:54:47;12.75;;;6.22;;
10450;SDS011;5273;51.290;6.918;2022-10-31T04:57:13;11.93;;;6.20;;
10450;SDS011;5273;51.290;6.918;2022-10-31T04:59:40;12.45;;;6.60;;
10450;SDS011;5273;51.290;6.918;2022-10-31T05:02:07;12.70;;;6.55;;
10450;SDS011;5273;51.290;6.918;2022-10-31T05:04:34;10.85;;;6.30;;
10450;SDS011;5273;51.290;6.918;2022-10-31T05:07:00;13.18;;;7.13;;
10450;SDS011;5273;51.290;6.918;2022-10-31T05:09:28;11.05;;;5.82;;
10450;SDS011;5273;51.290;6.918;2022-10-31T05:11:55;12.63;;;6.38;;
10450;SDS011;5273;51.290;6.918;2022-10-31T05:14:22;11.95;;;5.78;;
10450;SDS011;5273;51.290;6.918;2022-10-31T05:16:49;12.77;;;6.75;;
10450;SDS011;5273;51.290;6.918;2022-10-31T05:19:15;10.27;;;6.10;;
10450;SDS011;5273;51.290;6.918;2022-10-31T05:21:42;15.82;;;6.60;;
10450;SDS011;5273;51.290;6.918;2022-10-31T05:24:09;10.32;;;6.53;;
10450;SDS011;5273;51.290;6.918;2022-10-31T05:26:37;21.13;;;6.97;;
10450;SDS011;5273;51.290;6.918;2022-10-31T05:29:04;10.95;;;6.72;;
10450;SDS011;5273;51.290;6.918;2022-10-31T05:31:31;12.50;;;6.75;;
10450;SDS011;5273;51.290;6.918;2022-10-31T05:33:57;9.20;;;6.65;;
10450;SDS011;5273;51.290;6.918;2022-10-31T05:36:24;13.95;;;7.95;;
10450;SDS011;5273;51.290;6.918;2022-10-31T05:38:51;15.13;;;7.40;;
10450;SDS011;5273;51.290;6.918;2022-10-31T05:41:18;13.82;;;7.78;;
10450;SDS011;5273;51.290;6.918;2022-10-31T05:43:46;17.83;;;8.07;;
10450;SDS011;5273;51.290;6.918;2022-10-31T05:46:13;15.73;;;7.93;;
10450;SDS011;5273;51.290;6.918;2022-10-31T05:48:40;16.58;;;8.23;;
10450;SDS011;5273;51.290;6.918;2022-10-31T05:51:06;15.80;;;8.68;;
10450;SDS011;5273;51.290;6.918;2022-10-31T05:53:33;15.60;;;7.97;;
10450;SDS011;5273;51.290;6.918;2022-10-31T05:56:00;19.08;;;9.18;;
10450;SDS011;5273;51.290;6.918;2022-10-31T05:58:27;13.80;;;7.97;;
10450;SDS011;5273;51.290;6.918;2022-10-31T06:00:55;12.85;;;7.93;;
10450;SDS011;5273;51.290;6.918;2022-10-31T06:03:21;20.90;;;9.35;;
10450;SDS011;5273;51.290;6.918;2022-10-31T06:05:48;14.98;;;7.28;;
10450;SDS011;5273;51.290;6.918;2022-10-31T06:08:15;15.15;;;8.15;;
10450;SDS011;5273;51.290;6.918;2022-10-31T06:10:42;14.70;;;8.18;;
10450;SDS011;5273;51.290;6.918;2022-10-31T06:13:08;15.02;;;7.95;;
10450;SDS011;5273;51.290;6.918;2022-10-31T06:15:35;13.75;;;7.53;;
10450;SDS011;5273;51.290;6.918;2022-10-31T06:18:04;10.68;;;7.00;;
10450;SDS011;5273;51.290;6.918;2022-10-31T06:20:31;21.55;;;9.35;;
10450;SDS011;5273;51.290;6.918;2022-10-31T06:22:59;12.07;;;7.70;;
10450;SDS011;5273;51.290;6.918;2022-10-31T06:25:26;15.38;;;8.13;;
10450;SDS011;5273;51.290;6.918;2022-10-31T06:27:53;16.00;;;8.60;;
10450;SDS011;5273;51.290;6.918;2022-10-31T06:30:20;14.77;;;8.75;;
10450;SDS011;5273;51.290;6.918;2022-10-31T06:32:46;15.90;;;8.63;;
10450;SDS011;5273;51.290;6.918;2022-10-31T06:35:15;15.15;;;9.13;;
10450;SDS011;5273;51.290;6.918;2022-10-31T06:37:43;20.65;;;9.05;;
10450;SDS011;5273;51.290;6.918;2022-10-31T06:40:17;18.00;;;8.95;;
10450;SDS011;5273;51.290;6.918;2022-10-31T06:42:43;16.95;;;8.73;;
10450;SDS011;5273;51.290;6.918;2022-10-31T06:45:10;18.30;;;9.23;;
10450;SDS011;5273;51.290;6.918;2022-10-31T06:47:37;15.15;;;8.80;;
10450;SDS011;5273;51.290;6.918;2022-10-31T06:50:04;17.30;;;8.57;;
10450;SDS011;5273;51.290;6.918;2022-10-31T06:52:33;22.27;;;8.25;;
10450;SDS011;5273;51.290;6.918;2022-10-31T06:55:00;15.93;;;8.27;;
10450;SDS011;5273;51.290;6.918;2022-10-31T06:57:26;14.85;;;8.35;;
10450;SDS011;5273;51.290;6.918;2022-10-31T06:59:53;18.08;;;9.18;;
10450;SDS011;5273;51.290;6.918;2022-10-31T07:02:20;19.20;;;10.50;;
10450;SDS011;5273;51.290;6.918;2022-10-31T07:04:47;17.35;;;8.10;;
10450;SDS011;5273;51.290;6.918;2022-10-31T07:07:13;14.63;;;8.55;;
10450;SDS011;5273;51.290;6.918;2022-10-31T07:09:41;15.63;;;7.72;;
10450;SDS011;5273;51.290;6.918;2022-10-31T07:12:08;18.15;;;9.48;;
10450;SDS011;5273;51.290;6.918;2022-10-31T07:14:35;14.73;;;8.60;;
10450;SDS011;5273;51.290;6.918;2022-10-31T07:17:02;16.73;;;8.70;;
10450;SDS011;5273;51.290;6.918;2022-10-31T07:19:28;15.63;;;8.52;;
10450;SDS011;5273;51.290;6.918;2022-10-31T07:21:56;11.43;;;8.35;;
10450;SDS011;5273;51.290;6.918;2022-10-31T07:24:23;15.68;;;8.32;;
10450;SDS011;5273;51.290;6.918;2022-10-31T07:26:51;16.55;;;8.15;;
10450;SDS011;5273;51.290;6.918;2022-10-31T07:29:18;15.40;;;8.18;;
10450;SDS011;5273;51.290;6.918;2022-10-31T07:31:45;13.63;;;8.55;;
10450;SDS011;5273;51.290;6.918;2022-10-31T07:34:12;14.93;;;8.18;;
10450;SDS011;5273;51.290;6.918;2022-10-31T07:36:39;14.82;;;8.80;;
10450;SDS011;5273;51.290;6.918;2022-10-31T07:39:05;15.95;;;9.38;;
10450;SDS011;5273;51.290;6.918;2022-10-31T07:41:32;15.63;;;8.68;;
10450;SDS011;5273;51.290;6.918;2022-10-31T07:44:00;18.38;;;8.25;;
10450;SDS011;5273;51.290;6.918;2022-10-31T07:46:27;15.80;;;8.27;;
10450;SDS011;5273;51.290;6.918;2022-10-31T07:48:54;16.10;;;8.68;;
10450;SDS011;5273;51.290;6.918;2022-10-31T07:51:21;15.18;;;7.85;;
10450;SDS011;5273;51.290;6.918;2022-10-31T07:53:49;15.23;;;9.35;;
10450;SDS011;5273;51.290;6.918;2022-10-31T07:56:15;16.98;;;8.05;;
10450;SDS011;5273;51.290;6.918;2022-10-31T07:58:42;14.43;;;7.68;;
10450;SDS011;5273;51.290;6.918;2022-10-31T08:01:10;17.23;;;8.70;;
10450;SDS011;5273;51.290;6.918;2022-10-31T08:03:37;13.02;;;8.20;;
10450;SDS011;5273;51.290;6.918;2022-10-31T08:06:05;13.65;;;8.32;;
10450;SDS011;5273;51.290;6.918;2022-10-31T08:08:32;11.45;;;7.70;;
10450;SDS011;5273;51.290;6.918;2022-10-31T08:10:59;19.40;;;7.80;;
10450;SDS011;5273;51.290;6.918;2022-10-31T08:13:26;16.23;;;8.10;;
10450;SDS011;5273;51.290;6.918;2022-10-31T08:15:52;15.13;;;8.40;;
10450;SDS011;5273;51.290;6.918;2022-10-31T08:18:22;15.55;;;8.27;;
10450;SDS011;5273;51.290;6.918;2022-10-31T08:20:49;19.70;;;9.70;;
10450;SDS011;5273;51.290;6.918;2022-10-31T08:23:15;17.73;;;8.23;;
10450;SDS011;5273;51.290;6.918;2022-10-31T08:25:42;11.63;;;7.43;;
10450;SDS011;5273;51.290;6.918;2022-10-31T08:28:11;13.95;;;8.30;;
10450;SDS011;5273;51.290;6.918;2022-10-31T08:30:38;14.38;;;7.68;;
10450;SDS011;5273;51.290;6.918;2022-10-31T08:33:06;14.95;;;8.18;;
10450;SDS011;5273;51.290;6.918;2022-10-31T08:35:37;16.52;;;7.88;;
10450;SDS011;5273;51.290;6.918;2022-10-31T08:38:04;18.55;;;8.70;;
10450;SDS011;5273;51.290;6.918;2022-10-31T08:40:32;15.55;;;9.07;;
10450;SDS011;5273;51.290;6.918;2022-10-31T08:43:03;16.50;;;8.25;;
10450;SDS011;5273;51.290;6.918;2022-10-31T08:45:32;14.77;;;7.93;;
10450;SDS011;5273;51.290;6.918;2022-10-31T08:48:00;11.95;;;7.35;;
10450;SDS011;5273;51.290;6.918;2022-10-31T08:50:29;17.40;;;8.40;;
10450;SDS011;5273;51.290;6.918;2022-10-31T08:53:02;16.20;;;8.52;;
10450;SDS011;5273;51.290;6.918;2022-10-31T08:55:30;15.23;;;8.52;;
10450;SDS011;5273;51.290;6.918;2022-10-31T08:57:57;13.20;;;7.50;;
10450;SDS011;5273;51.290;6.918;2022-10-31T09:00:24;16.70;;;8.90;;
10450;SDS011;5273;51.290;6.918;2022-10-31T09:02:55;13.40;;;7.85;;
10450;SDS011;5273;51.290;6.918;2022-10-31T09:05:22;15.45;;;9.75;;
10450;SDS011;5273;51.290;6.918;2022-10-31T09:07:49;16.35;;;8.40;;
10450;SDS011;5273;51.290;6.918;2022-10-31T09:10:18;15.50;;;8.57;;
10450;SDS011;5273;51.290;6.918;2022-10-31T09:12:44;13.40;;;8.38;;
10450;SDS011;5273;51.290;6.918;2022-10-31T09:15:11;14.98;;;9.00;;
10450;SDS011;5273;51.290;6.918;2022-10-31T09:17:38;18.80;;;9.02;;
10450;SDS011;5273;51.290;6.918;2022-10-31T09:20:05;19.70;;;9.60;;
10450;SDS011;5273;51.290;6.918;2022-10-31T09:22:32;19.60;;;10.15;;
10450;SDS011;5273;51.290;6.918;2022-10-31T09:24:59;15.40;;;9.15;;
10450;SDS011;5273;51.290;6.918;2022-10-31T09:27:27;19.08;;;9.55;;
10450;SDS011;5273;51.290;6.918;2022-10-31T09:29:54;17.80;;;9.52;;
10450;SDS011;5273;51.290;6.918;2022-10-31T09:32:21;12.63;;;8.57;;
10450;SDS011;5273;51.290;6.918;2022-10-31T09:34:47;14.30;;;8.32;;
10450;SDS011;5273;51.290;6.918;2022-10-31T09:37:14;16.33;;;9.65;;
10450;SDS011;5273;51.290;6.918;2022-10-31T09:39:41;16.48;;;9.18;;
10450;SDS011;5273;51.290;6.918;2022-10-31T09:42:13;19.38;;;9.98;;
10450;SDS011;5273;51.290;6.918;2022-10-31T09:44:59;19.70;;;10.13;;
10450;SDS011;5273;51.290;6.918;2022-10-31T09:47:37;15.80;;;9.10;;
10450;SDS011;5273;51.290;6.918;2022-10-31T09:50:14;21.42;;;9.68;;
10450;SDS011;5273;51.290;6.918;2022-10-31T09:52:47;19.27;;;9.25;;
10450;SDS011;5273;51.290;6.918;2022-10-31T09:55:24;15.48;;;8.80;;
10450;SDS011;5273;51.290;6.918;2022-10-31T09:57:54;16.55;;;9.32;;
10450;SDS011;5273;51.290;6.918;2022-10-31T10:00:23;19.60;;;9.75;;
10450;SDS011;5273;51.290;6.918;2022-10-31T10:02:51;15.95;;;9.07;;
10450;SDS011;5273;51.290;6.918;2022-10-31T10:05:24;14.95;;;9.70;;
10450;SDS011;5273;51.290;6.918;2022-10-31T10:07:59;18.92;;;9.55;;
10450;SDS011;5273;51.290;6.918;2022-10-31T10:10:37;12.65;;;8.35;;
10450;SDS011;5273;51.290;6.918;2022-10-31T10:13:16;16.13;;;8.52;;
10450;SDS011;5273;51.290;6.918;2022-10-31T10:16:14;18.60;;;8.40;;
10450;SDS011;5273;51.290;6.918;2022-10-31T10:18:50;13.18;;;7.75;;
10450;SDS011;5273;51.290;6.918;2022-10-31T10:21:29;12.35;;;7.50;;
10450;SDS011;5273;51.290;6.918;2022-10-31T10:24:13;15.10;;;8.02;;
10450;SDS011;5273;51.290;6.918;2022-10-31T10:26:50;13.13;;;7.68;;
10450;SDS011;5273;51.290;6.918;2022-10-31T10:29:29;10.75;;;7.38;;
10450;SDS011;5273;51.290;6.918;2022-10-31T10:32:01;14.95;;;7.53;;
10450;SDS011;5273;51.290;6.918;2022-10-31T10:34:37;16.00;;;7.30;;
10450;SDS011;5273;51.290;6.918;2022-10-31T10:37:12;11.27;;;7.30;;
10450;SDS011;5273;51.290;6.918;2022-10-31T10:39:48;11.63;;;7.55;;
10450;SDS011;5273;51.290;6.918;2022-10-31T10:42:17;15.70;;;7.53;;
10450;SDS011;5273;51.290;6.918;2022-10-31T10:45:06;13.35;;;6.45;;
10450;SDS011;5273;51.290;6.918;2022-10-31T10:48:02;10.43;;;6.43;;
10450;SDS011;5273;51.290;6.918;2022-10-31T10:50:36;12.95;;;6.32;;
10450;SDS011;5273;51.290;6.918;2022-10-31T10:53:08;10.63;;;5.68;;
10450;SDS011;5273;51.290;6.918;2022-10-31T10:55:48;10.63;;;5.90;;
10450;SDS011;5273;51.290;6.918;2022-10-31T10:58:21;9.60;;;5.20;;
10450;SDS011;5273;51.290;6.918;2022-10-31T11:00:54;8.02;;;4.97;;
10450;SDS011;5273;51.290;6.918;2022-10-31T11:03:23;11.18;;;5.25;;
10450;SDS011;5273;51.290;6.918;2022-10-31T11:05:50;9.13;;;4.50;;
10450;SDS011;5273;51.290;6.918;2022-10-31T11:08:24;7.57;;;4.18;;
10450;SDS011;5273;51.290;6.918;2022-10-31T11:10:58;5.05;;;3.90;;
10450;SDS011;5273;51.290;6.918;2022-10-31T11:13:27;8.05;;;4.18;;
10450;SDS011;5273;51.290;6.918;2022-10-31T11:15:56;7.07;;;3.97;;
10450;SDS011;5273;51.290;6.918;2022-10-31T11:18:27;8.77;;;3.95;;
10450;SDS011;5273;51.290;6.918;2022-10-31T11:20:56;9.43;;;4.65;;
10450;SDS011;5273;51.290;6.918;2022-10-31T11:23:24;10.13;;;3.88;;
10450;SDS011;5273;51.290;6.918;2022-10-31T11:25:54;6.78;;;3.60;;
10450;SDS011;5273;51.290;6.918;2022-10-31T11:28:22;5.78;;;3.70;;
10450;SDS011;5273;51.290;6.918;2022-10-31T11:30:50;10.38;;;3.25;;
10450;SDS011;5273;51.290;6.918;2022-10-31T11:33:22;10.80;;;3.90;;
10450;SDS011;5273;51.290;6.918;2022-10-31T11:35:56;7.00;;;3.80;;
10450;SDS011;5273;51.290;6.918;2022-10-31T11:38:24;5.38;;;3.40;;
10450;SDS011;5273;51.290;6.918;2022-10-31T11:40:56;7.55;;;3.63;;
10450;SDS011;5273;51.290;6.918;2022-10-31T11:43:26;9.02;;;3.22;;
10450;SDS011;5273;51.290;6.918;2022-10-31T11:45:53;10.13;;;3.70;;
10450;SDS011;5273;51.290;6.918;2022-10-31T11:48:20;8.95;;;3.50;;
10450;SDS011;5273;51.290;6.918;2022-10-31T11:50:52;11.35;;;3.50;;
10450;SDS011;5273;51.290;6.918;2022-10-31T11:53:24;6.57;;;3.00;;
10450;SDS011;5273;51.290;6.918;2022-10-31T11:56:00;3.33;;;2.70;;
10450;SDS011;5273;51.290;6.918;2022-10-31T11:58:32;5.95;;;2.60;;
10450;SDS011;5273;51.290;6.918;2022-10-31T12:00:58;6.60;;;2.88;;
10450;SDS011;5273;51.290;6.918;2022-10-31T12:03:33;13.10;;;3.45;;
10450;SDS011;5273;51.290;6.918;2022-10-31T12:06:09;5.35;;;2.35;;
10450;SDS011;5273;51.290;6.918;2022-10-31T12:08:39;3.03;;;2.75;;
10450;SDS011;5273;51.290;6.918;2022-10-31T12:11:10;8.55;;;3.20;;
10450;SDS011;5273;51.290;6.918;2022-10-31T12:13:47;5.55;;;3.38;;
10450;SDS011;5273;51.290;6.918;2022-10-31T12:16:24;3.92;;;2.70;;
10450;SDS011;5273;51.290;6.918;2022-10-31T12:18:59;5.78;;;3.10;;
10450;SDS011;5273;51.290;6.918;2022-10-31T12:24:34;4.78;;;3.00;;
10450;SDS011;5273;51.290;6.918;2022-10-31T12:27:15;4.45;;;2.80;;
10450;SDS011;5273;51.290;6.918;2022-10-31T12:29:57;8.00;;;3.33;;
10450;SDS011;5273;51.290;6.918;2022-10-31T12:32:40;5.22;;;3.05;;
10450;SDS011;5273;51.290;6.918;2022-10-31T12:35:23;4.40;;;2.70;;
10450;SDS011;5273;51.290;6.918;2022-10-31T12:38:11;5.55;;;2.60;;
10450;SDS011;5273;51.290;6.918;2022-10-31T12:41:15;6.70;;;2.60;;
10450;SDS011;5273;51.290;6.918;2022-10-31T12:43:57;4.05;;;2.63;;
10450;SDS011;5273;51.290;6.918;2022-10-31T12:46:35;6.20;;;2.53;;
10450;SDS011;5273;51.290;6.918;2022-10-31T12:49:27;7.78;;;2.75;;
10450;SDS011;5273;51.290;6.918;2022-10-31T12:52:17;8.63;;;3.13;;
10450;SDS011;5273;51.290;6.918;2022-10-31T12:54:58;4.60;;;2.97;;
10450;SDS011;5273;51.290;6.918;2022-10-31T12:57:35;4.10;;;2.40;;
10450;SDS011;5273;51.290;6.918;2022-10-31T13:00:09;6.65;;;2.70;;
10450;SDS011;5273;51.290;6.918;2022-10-31T13:02:41;5.07;;;2.80;;
10450;SDS011;5273;51.290;6.918;2022-10-31T13:05:13;6.22;;;2.53;;
10450;SDS011;5273;51.290;6.918;2022-10-31T13:07:44;4.85;;;2.63;;
10450;SDS011;5273;51.290;6.918;2022-10-31T13:10:18;8.25;;;2.80;;
10450;SDS011;5273;51.290;6.918;2022-10-31T13:12:48;9.93;;;2.63;;
10450;SDS011;5273;51.290;6.918;2022-10-31T13:15:19;2.28;;;2.08;;
10450;SDS011;5273;51.290;6.918;2022-10-31T13:17:48;7.10;;;2.78;;
10450;SDS011;5273;51.290;6.918;2022-10-31T13:20:23;2.63;;;2.40;;
10450;SDS011;5273;51.290;6.918;2022-10-31T13:22:54;4.22;;;2.20;;
10450;SDS011;5273;51.290;6.918;2022-10-31T13:25:27;5.00;;;2.72;;
10450;SDS011;5273;51.290;6.918;2022-10-31T13:27:58;10.68;;;2.55;;
10450;SDS011;5273;51.290;6.918;2022-10-31T13:30:28;3.63;;;2.30;;
10450;SDS011;5273;51.290;6.918;2022-10-31T13:32:58;10.35;;;2.30;;
10450;SDS011;5273;51.290;6.918;2022-10-31T13:35:29;4.72;;;2.38;;
10450;SDS011;5273;51.290;6.918;2022-10-31T13:38:05;6.22;;;2.40;;
10450;SDS011;5273;51.290;6.918;2022-10-31T13:40:44;5.75;;;2.85;;
10450;SDS011;5273;51.290;6.918;2022-10-31T13:43:18;6.97;;;2.47;;
10450;SDS011;5273;51.290;6.918;2022-10-31T13:45:54;7.60;;;2.67;;
10450;SDS011;5273;51.290;6.918;2022-10-31T13:48:38;4.72;;;2.40;;
10450;SDS011;5273;51.290;6.918;2022-10-31T13:51:08;5.22;;;2.40;;
10450;SDS011;5273;51.290;6.918;2022-10-31T13:53:37;7.63;;;2.65;;
10450;SDS011;5273;51.290;6.918;2022-10-31T13:56:13;3.88;;;2.50;;
10450;SDS011;5273;51.290;6.918;2022-10-31T13:58:43;5.65;;;2.65;;
10450;SDS011;5273;51.290;6.918;2022-10-31T14:01:31;4.45;;;2.38;;
10450;SDS011;5273;51.290;6.918;2022-10-31T14:04:00;7.25;;;2.83;;
10450;SDS011;5273;51.290;6.918;2022-10-31T14:06:38;5.40;;;2.67;;
10450;SDS011;5273;51.290;6.918;2022-10-31T14:09:15;7.80;;;2.67;;
10450;SDS011;5273;51.290;6.918;2022-10-31T14:11:48;4.13;;;2.72;;
10450;SDS011;5273;51.290;6.918;2022-10-31T14:14:16;6.38;;;2.80;;
10450;SDS011;5273;51.290;6.918;2022-10-31T14:16:44;6.30;;;2.78;;
10450;SDS011;5273;51.290;6.918;2022-10-31T14:19:17;7.00;;;3.25;;
10450;SDS011;5273;51.290;6.918;2022-10-31T14:21:45;7.32;;;2.85;;
10450;SDS011;5273;51.290;6.918;2022-10-31T14:24:14;4.70;;;2.58;;
10450;SDS011;5273;51.290;6.918;2022-10-31T14:26:52;6.75;;;2.88;;
10450;SDS011;5273;51.290;6.918;2022-10-31T14:29:22;7.07;;;2.90;;
10450;SDS011;5273;51.290;6.918;2022-10-31T14:31:52;5.93;;;2.55;;
10450;SDS011;5273;51.290;6.918;2022-10-31T14:34:22;4.85;;;2.38;;
10450;SDS011;5273;51.290;6.918;2022-10-31T14:40:02;3.45;;;2.38;;
10450;SDS011;5273;51.290;6.918;2022-10-31T14:42:51;4.93;;;2.38;;
10450;SDS011;5273;51.290;6.918;2022-10-31T14:45:41;5.63;;;2.42;;
10450;SDS011;5273;51.290;6.918;2022-10-31T14:48:21;5.63;;;2.53;;
10450;SDS011;5273;51.290;6.918;2022-10-31T14:50:57;5.00;;;2.35;;
10450;SDS011;5273;51.290;6.918;2022-10-31T14:53:26;5.32;;;2.75;;
10450;SDS011;5273;51.290;6.918;2022-10-31T14:55:56;5.18;;;2.30;;
10450;SDS011;5273;51.290;6.918;2022-10-31T14:58:26;3.53;;;2.70;;
10450;SDS011;5273;51.290;6.918;2022-10-31T15:00:59;4.28;;;2.63;;
10450;SDS011;5273;51.290;6.918;2022-10-31T15:03:28;4.93;;;2.40;;
10450;SDS011;5273;51.290;6.918;2022-10-31T15:05:59;6.95;;;2.35;;
10450;SDS011;5273;51.290;6.918;2022-10-31T15:08:31;6.68;;;2.58;;
10450;SDS011;5273;51.290;6.918;2022-10-31T15:11:02;6.82;;;2.58;;
10450;SDS011;5273;51.290;6.918;2022-10-31T15:13:41;6.47;;;2.85;;
10450;SDS011;5273;51.290;6.918;2022-10-31T15:16:09;8.18;;;2.67;;
10450;SDS011;5273;51.290;6.918;2022-10-31T15:18:38;6.13;;;2.83;;
10450;SDS011;5273;51.290;6.918;2022-10-31T15:21:14;7.53;;;2.78;;
10450;SDS011;5273;51.290;6.918;2022-10-31T15:23:41;6.20;;;2.17;;
10450;SDS011;5273;51.290;6.918;2022-10-31T15:26:11;2.85;;;2.20;;